createdAt,value
2019-03-12T00:02:42.029Z,46.18
2019-03-12T00:07:45.633Z,29.55
2019-03-12T00:12:49.954Z,15.60
2019-03-12T00:17:53.984Z,16.97
2019-03-12T00:22:57.411Z,33.38
2019-03-12T00:28:02.021Z,34.23
2019-03-12T00:33:06.220Z,21.93
2019-03-12T00:38:09.827Z,29.92
2019-03-12T00:43:14.178Z,42.93
2019-03-12T00:48:18.857Z,40.05
2019-03-12T00:53:22.317Z,44.40
2019-03-12T00:58:25.609Z,25.10
2019-03-12T01:03:29.064Z,33.80
2019-03-12T01:08:32.841Z,21.52
2019-03-12T01:13:36.958Z,29.35
2019-03-12T01:18:41.272Z,12.58
2019-03-12T01:23:44.668Z,22.35
2019-03-12T01:28:49.665Z,16.93
2019-03-12T01:33:53.032Z,28.32
2019-03-12T01:38:56.580Z,29.23
2019-03-12T01:44:00.154Z,10.80
2019-03-12T01:49:03.658Z,25.97
2019-03-12T01:54:07.387Z,25.02
2019-03-12T01:59:11.704Z,29.45
2019-03-12T02:04:15.152Z,29.52
2019-03-12T02:09:18.778Z,20.97
2019-03-12T02:14:32.348Z,15.72
2019-03-12T02:19:36.045Z,19.10
2019-03-12T02:24:52.067Z,16.60
2019-03-12T02:29:46.661Z,25.40
2019-03-12T02:34:50.030Z,17.92
2019-03-12T02:39:53.527Z,26.52
2019-03-12T02:44:56.998Z,29.67
2019-03-12T02:50:00.654Z,20.12
2019-03-12T02:55:04.853Z,15.32
2019-03-12T03:00:14.794Z,27.73
2019-03-12T03:05:18.273Z,18.85
2019-03-12T03:10:22.673Z,17.90
2019-03-12T03:15:30.088Z,13.72
2019-03-12T03:20:35.479Z,29.23
2019-03-12T03:25:39.012Z,27.75
2019-03-12T03:30:43.162Z,9.70
2019-03-12T03:35:46.505Z,9.30
2019-03-12T03:40:50.938Z,18.80
2019-03-12T03:45:54.512Z,14.68
2019-03-12T03:50:58.270Z,20.32
2019-03-12T03:56:02.250Z,9.65
2019-03-12T04:01:05.633Z,12.37
2019-03-12T04:06:09.032Z,16.55
2019-03-12T04:11:12.944Z,13.43
2019-03-12T04:16:16.450Z,10.45
2019-03-12T04:21:21.372Z,14.30
2019-03-12T04:26:24.945Z,19.48
2019-03-12T04:31:28.237Z,19.62
2019-03-12T04:36:31.920Z,13.13
2019-03-12T04:41:40.938Z,11.03
2019-03-12T04:46:44.282Z,14.07
2019-03-12T04:51:50.857Z,13.22
2019-03-12T04:56:54.195Z,5.40
2019-03-12T05:01:57.570Z,12.20
2019-03-12T05:07:01.273Z,16.30
2019-03-12T05:12:04.808Z,29.00
2019-03-12T05:17:16.601Z,20.32
2019-03-12T05:22:22.592Z,13.53
2019-03-12T05:27:25.960Z,25.23
2019-03-12T05:32:29.360Z,28.62
2019-03-12T05:37:32.730Z,11.90
2019-03-12T05:42:36.455Z,13.00
2019-03-12T05:47:40.103Z,13.30
2019-03-12T05:52:44.185Z,22.85
2019-03-12T05:57:47.858Z,16.62
2019-03-12T06:02:52.558Z,18.50
2019-03-12T06:07:56.076Z,21.70
2019-03-12T06:12:59.502Z,12.60
2019-03-12T06:18:02.929Z,19.52
2019-03-12T06:23:09.130Z,24.57
2019-03-12T06:28:12.547Z,26.50
2019-03-12T06:33:24.198Z,20.72
2019-03-12T06:38:49.566Z,30.90
2019-03-12T06:44:03.278Z,24.98
2019-03-12T06:49:41.717Z,26.95
2019-03-12T06:55:11.392Z,8.75
2019-03-12T07:00:22.959Z,14.65
2019-03-12T07:05:44.848Z,10.93
2019-03-12T07:11:10.758Z,19.92
2019-03-12T07:16:43.119Z,20.77
2019-03-12T07:22:05.041Z,13.93
2019-03-12T07:27:34.261Z,19.52
2019-03-12T07:32:56.478Z,7.72
2019-03-12T07:38:09.384Z,12.80
2019-03-12T07:43:39.306Z,14.43
2019-03-12T07:49:02.305Z,6.70
2019-03-12T07:54:21.789Z,8.25
2019-03-12T07:59:36.857Z,12.53
2019-03-12T08:04:52.764Z,10.68
2019-03-12T08:10:28.468Z,9.23
2019-03-12T08:15:44.648Z,11.60
2019-03-12T08:20:59.755Z,5.87
2019-03-12T08:26:22.819Z,9.98
2019-03-12T08:31:45.239Z,6.95
2019-03-12T08:36:56.872Z,4.58
2019-03-12T08:42:23.898Z,3.27
2019-03-12T08:47:46.144Z,10.98
2019-03-12T08:53:27.008Z,6.40
2019-03-12T08:58:52.839Z,9.00
2019-03-12T09:04:18.816Z,5.10
2019-03-12T09:09:53.920Z,5.05
2019-03-12T09:15:20.918Z,7.67
2019-03-12T09:20:52.567Z,8.80
2019-03-12T09:26:03.383Z,4.97
2019-03-12T09:31:23.145Z,4.78
2019-03-12T09:36:49.271Z,7.80
2019-03-12T09:42:13.710Z,9.15
2019-03-12T09:47:33.141Z,5.65
2019-03-12T09:52:46.053Z,7.12
2019-03-12T09:57:57.632Z,5.75
2019-03-12T10:03:16.587Z,3.27
2019-03-12T10:08:48.624Z,15.13
2019-03-12T10:14:25.640Z,8.73
2019-03-12T10:19:47.688Z,7.83
2019-03-12T10:25:09.360Z,8.70
2019-03-12T10:30:50.009Z,9.55
2019-03-12T10:36:05.247Z,5.00
2019-03-12T10:41:39.509Z,5.15
2019-03-12T10:46:58.336Z,6.15
2019-03-12T10:52:02.132Z,9.08
2019-03-12T10:57:06.403Z,6.20
2019-03-12T11:02:09.680Z,7.08
2019-03-12T11:07:16.738Z,3.92
2019-03-12T11:12:19.463Z,5.75
2019-03-12T11:17:22.792Z,13.75
2019-03-12T11:22:26.481Z,10.45
2019-03-12T11:27:29.884Z,14.63
2019-03-12T11:32:33.568Z,4.58
2019-03-12T11:37:37.269Z,8.13
2019-03-12T11:42:41.146Z,7.37
2019-03-12T11:47:44.529Z,8.10
2019-03-12T11:52:54.611Z,10.93
2019-03-12T11:57:54.295Z,5.25
2019-03-12T12:03:00.372Z,5.37
2019-03-12T12:08:03.130Z,6.17
2019-03-12T12:13:08.001Z,2.95
2019-03-12T12:18:12.039Z,9.93
2019-03-12T12:23:15.437Z,17.67
2019-03-12T12:28:19.578Z,7.62
2019-03-12T12:33:23.109Z,7.95
2019-03-12T12:38:26.785Z,8.88
2019-03-12T12:43:30.459Z,11.75
2019-03-12T12:48:34.319Z,10.10
2019-03-12T12:53:38.439Z,14.70
2019-03-12T12:58:43.664Z,16.93
2019-03-12T13:03:46.994Z,9.33
2019-03-12T13:08:50.342Z,10.70
2019-03-12T13:13:53.701Z,11.28
2019-03-12T13:18:57.541Z,14.98
2019-03-12T13:24:01.441Z,5.78
2019-03-12T13:29:05.934Z,8.93
2019-03-12T13:34:09.672Z,14.13
2019-03-12T13:39:14.208Z,15.38
2019-03-12T13:44:18.095Z,15.68
2019-03-12T13:49:21.807Z,14.98
2019-03-12T13:54:25.293Z,10.98
2019-03-12T13:59:29.558Z,12.18
2019-03-12T14:04:33.118Z,12.95
2019-03-12T14:09:36.662Z,9.83
2019-03-12T14:14:40.518Z,10.68
2019-03-12T14:19:44.648Z,15.48
2019-03-12T14:24:47.966Z,8.85
2019-03-12T14:29:51.744Z,11.15
2019-03-12T14:34:55.340Z,23.85
2019-03-12T14:39:58.666Z,14.98
2019-03-12T14:45:09.892Z,23.80
2019-03-12T14:50:13.485Z,20.05
2019-03-12T14:55:16.784Z,14.07
2019-03-12T15:00:23.550Z,24.57
2019-03-12T15:05:26.809Z,12.18
2019-03-12T15:10:30.137Z,17.32
2019-03-12T15:15:33.489Z,16.90
2019-03-12T15:20:37.817Z,17.20
2019-03-12T15:25:41.190Z,25.25
2019-03-12T15:30:44.500Z,26.35
2019-03-12T15:35:47.865Z,21.65
2019-03-12T15:40:51.452Z,14.70
2019-03-12T15:45:54.738Z,16.15
2019-03-12T15:50:58.094Z,18.48
2019-03-12T15:56:01.460Z,17.02
2019-03-12T16:01:05.552Z,25.40
2019-03-12T16:06:08.838Z,20.45
2019-03-12T16:11:13.567Z,18.27
2019-03-12T16:16:17.525Z,15.43
2019-03-12T16:21:21.189Z,17.57
2019-03-12T16:26:25.132Z,14.28
2019-03-12T16:31:28.771Z,14.95
2019-03-12T16:36:33.222Z,14.68
2019-03-12T16:41:36.776Z,22.45
2019-03-12T16:46:40.864Z,24.55
2019-03-12T16:51:44.228Z,24.45
2019-03-12T16:56:47.662Z,26.10
2019-03-12T17:01:51.759Z,20.40
2019-03-12T17:06:55.338Z,23.42
2019-03-12T17:11:58.885Z,29.10
2019-03-12T17:17:02.650Z,30.48
2019-03-12T17:22:05.986Z,36.13
2019-03-12T17:27:10.517Z,38.98
2019-03-12T17:32:13.780Z,34.83
2019-03-12T17:37:17.114Z,37.83
2019-03-12T17:42:20.471Z,39.30
2019-03-12T17:47:24.043Z,44.45
2019-03-12T17:52:28.716Z,53.40
2019-03-12T17:57:32.098Z,46.23
2019-03-12T18:02:42.432Z,43.48
2019-03-12T18:07:40.925Z,43.50
2019-03-12T18:12:44.629Z,44.80
2019-03-12T18:17:49.920Z,52.60
2019-03-12T18:22:53.605Z,44.13
2019-03-12T18:27:57.395Z,45.25
2019-03-12T18:33:00.942Z,53.20
2019-03-12T18:38:04.429Z,50.85
2019-03-12T18:43:07.825Z,48.65
2019-03-12T18:48:11.500Z,52.13
2019-03-12T18:53:16.004Z,79.32
2019-03-12T18:58:20.517Z,81.90
2019-03-12T19:03:25.133Z,85.62
2019-03-12T19:08:28.509Z,90.95
2019-03-12T19:13:52.822Z,90.17
2019-03-12T19:18:56.278Z,84.97
2019-03-12T19:23:59.630Z,73.30
2019-03-12T19:29:02.817Z,81.17
2019-03-12T19:34:16.472Z,78.52
2019-03-12T19:39:20.244Z,66.70
2019-03-12T19:44:23.581Z,60.52
2019-03-12T19:49:26.851Z,55.85
2019-03-12T19:54:30.353Z,49.60
2019-03-12T19:59:36.639Z,55.38
2019-03-12T20:04:47.108Z,53.30
2019-03-12T20:10:39.062Z,49.40
2019-03-12T20:16:41.602Z,52.60
2019-03-12T20:22:47.296Z,54.15
2019-03-12T20:28:24.574Z,50.33
2019-03-12T20:34:17.926Z,50.37
2019-03-12T20:40:20.790Z,59.93
2019-03-12T20:46:04.966Z,55.25
2019-03-12T20:52:09.685Z,60.20
2019-03-12T20:58:27.647Z,64.03
2019-03-12T21:04:45.842Z,69.30
2019-03-12T21:10:42.505Z,67.72
2019-03-12T21:16:48.485Z,66.33
2019-03-12T21:22:29.029Z,58.87
2019-03-12T21:28:34.513Z,58.90
2019-03-12T21:33:37.886Z,55.38
2019-03-12T21:38:41.745Z,69.32
2019-03-12T21:43:45.121Z,69.58
2019-03-12T21:48:48.724Z,67.15
2019-03-12T21:53:53.762Z,77.45
2019-03-12T21:58:57.685Z,65.25
2019-03-12T22:04:01.849Z,74.90
2019-03-12T22:09:05.891Z,74.12
2019-03-12T22:14:09.574Z,48.38
2019-03-12T22:19:12.890Z,61.30
2019-03-12T22:24:19.346Z,59.50
2019-03-12T22:29:23.144Z,55.37
2019-03-12T22:34:30.187Z,54.98
2019-03-12T22:39:34.015Z,56.57
2019-03-12T22:44:37.625Z,63.78
2019-03-12T22:49:41.403Z,48.65
2019-03-12T22:54:45.690Z,64.97
2019-03-12T22:59:49.054Z,47.53
2019-03-12T23:04:52.852Z,49.50
2019-03-12T23:09:56.361Z,43.87
2019-03-12T23:15:00.915Z,44.42
2019-03-12T23:20:07.198Z,51.40
2019-03-12T23:25:10.982Z,48.70
2019-03-12T23:30:15.219Z,51.77
2019-03-12T23:35:18.614Z,53.55
2019-03-12T23:40:23.536Z,52.53
2019-03-12T23:45:27.111Z,56.33
2019-03-12T23:50:30.606Z,58.42
2019-03-12T23:55:34.054Z,55.15
